sensor_id;sensor_type;location;lat;lon;timestamp;temperature;humidity
10388;DHT22;5240;51.128;4.566;2023-05-10T00:01:36;13.60;99.90
10388;DHT22;5240;51.128;4.566;2023-05-10T00:04:03;13.60;99.90
10388;DHT22;5240;51.128;4.566;2023-05-10T00:06:30;13.60;99.90
10388;DHT22;5240;51.128;4.566;2023-05-10T00:08:58;13.60;99.90
10388;DHT22;5240;51.128;4.566;2023-05-10T00:11:25;13.60;99.90
10388;DHT22;5240;51.128;4.566;2023-05-10T00:13:52;13.60;99.90
10388;DHT22;5240;51.128;4.566;2023-05-10T00:16:19;13.50;99.90
10388;DHT22;5240;51.128;4.566;2023-05-10T00:18:46;13.50;99.90
10388;DHT22;5240;51.128;4.566;2023-05-10T00:21:13;13.50;99.90
10388;DHT22;5240;51.128;4.566;2023-05-10T00:23:40;13.50;99.90
10388;DHT22;5240;51.128;4.566;2023-05-10T00:26:09;13.50;99.90
10388;DHT22;5240;51.128;4.566;2023-05-10T00:28:36;13.40;99.90
10388;DHT22;5240;51.128;4.566;2023-05-10T00:31:03;13.50;99.90
10388;DHT22;5240;51.128;4.566;2023-05-10T00:33:30;13.40;99.90
10388;DHT22;5240;51.128;4.566;2023-05-10T00:35:57;13.40;99.90
10388;DHT22;5240;51.128;4.566;2023-05-10T00:38:24;13.40;99.90
10388;DHT22;5240;51.128;4.566;2023-05-10T00:40:51;13.50;99.90
10388;DHT22;5240;51.128;4.566;2023-05-10T00:43:20;13.40;99.90
10388;DHT22;5240;51.128;4.566;2023-05-10T00:45:47;13.50;99.90
10388;DHT22;5240;51.128;4.566;2023-05-10T00:48:14;13.40;99.90
10388;DHT22;5240;51.128;4.566;2023-05-10T00:50:41;13.40;99.90
10388;DHT22;5240;51.128;4.566;2023-05-10T00:53:08;13.40;99.90
10388;DHT22;5240;51.128;4.566;2023-05-10T00:55:36;13.40;99.90
10388;DHT22;5240;51.128;4.566;2023-05-10T00:58:03;13.40;99.90
10388;DHT22;5240;51.128;4.566;2023-05-10T01:00:33;13.40;99.90
10388;DHT22;5240;51.128;4.566;2023-05-10T01:03:00;13.40;99.90
10388;DHT22;5240;51.128;4.566;2023-05-10T01:05:28;13.40;99.90
10388;DHT22;5240;51.128;4.566;2023-05-10T01:07:56;13.40;99.90
10388;DHT22;5240;51.128;4.566;2023-05-10T01:10:23;13.40;99.90
10388;DHT22;5240;51.128;4.566;2023-05-10T01:12:50;13.50;99.90
10388;DHT22;5240;51.128;4.566;2023-05-10T01:15:18;13.40;99.90
10388;DHT22;5240;51.128;4.566;2023-05-10T01:17:48;13.40;99.90
10388;DHT22;5240;51.128;4.566;2023-05-10T01:20:15;13.40;99.90
10388;DHT22;5240;51.128;4.566;2023-05-10T01:23:04;13.40;99.90
10388;DHT22;5240;51.128;4.566;2023-05-10T01:25:59;13.40;99.90
10388;DHT22;5240;51.128;4.566;2023-05-10T01:28:50;13.40;99.90
10388;DHT22;5240;51.128;4.566;2023-05-10T01:31:33;13.30;99.90
10388;DHT22;5240;51.128;4.566;2023-05-10T01:34:08;13.30;99.90
10388;DHT22;5240;51.128;4.566;2023-05-10T01:36:42;13.40;99.90
10388;DHT22;5240;51.128;4.566;2023-05-10T01:39:16;13.40;99.90
10388;DHT22;5240;51.128;4.566;2023-05-10T01:41:49;13.40;99.90
10388;DHT22;5240;51.128;4.566;2023-05-10T01:44:24;13.40;99.90
10388;DHT22;5240;51.128;4.566;2023-05-10T01:47:01;13.30;99.90
10388;DHT22;5240;51.128;4.566;2023-05-10T01:49:34;13.40;99.90
10388;DHT22;5240;51.128;4.566;2023-05-10T01:52:06;13.40;99.90
10388;DHT22;5240;51.128;4.566;2023-05-10T01:54:35;13.50;99.90
10388;DHT22;5240;51.128;4.566;2023-05-10T01:57:06;13.50;99.90
10388;DHT22;5240;51.128;4.566;2023-05-10T01:59:37;13.40;99.90
10388;DHT22;5240;51.128;4.566;2023-05-10T02:02:07;13.50;99.90
10388;DHT22;5240;51.128;4.566;2023-05-10T02:04:39;13.50;99.90
10388;DHT22;5240;51.128;4.566;2023-05-10T02:07:08;13.50;99.90
10388;DHT22;5240;51.128;4.566;2023-05-10T02:09:37;13.40;99.90
10388;DHT22;5240;51.128;4.566;2023-05-10T02:12:05;13.40;99.90
10388;DHT22;5240;51.128;4.566;2023-05-10T02:14:36;13.40;99.90
10388;DHT22;5240;51.128;4.566;2023-05-10T02:17:05;13.40;99.90
10388;DHT22;5240;51.128;4.566;2023-05-10T02:19:34;13.40;99.90
10388;DHT22;5240;51.128;4.566;2023-05-10T02:22:04;13.30;99.90
10388;DHT22;5240;51.128;4.566;2023-05-10T02:24:32;13.40;99.90
10388;DHT22;5240;51.128;4.566;2023-05-10T02:27:01;13.40;99.90
10388;DHT22;5240;51.128;4.566;2023-05-10T02:29:29;13.50;99.90
10388;DHT22;5240;51.128;4.566;2023-05-10T02:31:58;13.50;99.90
10388;DHT22;5240;51.128;4.566;2023-05-10T02:34:26;13.50;99.90
10388;DHT22;5240;51.128;4.566;2023-05-10T02:36:54;13.40;99.90
10388;DHT22;5240;51.128;4.566;2023-05-10T02:39:24;13.40;99.90
10388;DHT22;5240;51.128;4.566;2023-05-10T02:41:52;13.40;99.90
10388;DHT22;5240;51.128;4.566;2023-05-10T02:44:21;13.40;99.90
10388;DHT22;5240;51.128;4.566;2023-05-10T02:46:49;13.40;99.90
10388;DHT22;5240;51.128;4.566;2023-05-10T02:49:17;13.40;99.90
10388;DHT22;5240;51.128;4.566;2023-05-10T02:51:49;13.40;99.90
10388;DHT22;5240;51.128;4.566;2023-05-10T02:54:19;13.40;99.90
10388;DHT22;5240;51.128;4.566;2023-05-10T02:56:52;13.50;99.90
10388;DHT22;5240;51.128;4.566;2023-05-10T02:59:20;13.40;99.90
10388;DHT22;5240;51.128;4.566;2023-05-10T03:01:47;13.40;99.90
10388;DHT22;5240;51.128;4.566;2023-05-10T03:04:14;13.50;99.90
10388;DHT22;5240;51.128;4.566;2023-05-10T03:06:41;13.40;99.90
10388;DHT22;5240;51.128;4.566;2023-05-10T03:09:09;13.40;99.90
10388;DHT22;5240;51.128;4.566;2023-05-10T03:11:47;13.40;99.90
10388;DHT22;5240;51.128;4.566;2023-05-10T03:14:30;13.40;99.90
10388;DHT22;5240;51.128;4.566;2023-05-10T03:17:04;13.50;99.90
10388;DHT22;5240;51.128;4.566;2023-05-10T03:19:42;13.50;99.90
10388;DHT22;5240;51.128;4.566;2023-05-10T03:22:11;13.40;99.90
10388;DHT22;5240;51.128;4.566;2023-05-10T03:24:41;13.40;99.90
10388;DHT22;5240;51.128;4.566;2023-05-10T03:27:09;13.30;99.90
10388;DHT22;5240;51.128;4.566;2023-05-10T03:29:38;13.30;99.90
10388;DHT22;5240;51.128;4.566;2023-05-10T03:32:05;13.40;99.90
10388;DHT22;5240;51.128;4.566;2023-05-10T03:34:33;13.40;99.90
10388;DHT22;5240;51.128;4.566;2023-05-10T03:37:01;13.20;99.90
10388;DHT22;5240;51.128;4.566;2023-05-10T03:39:28;13.30;99.90
10388;DHT22;5240;51.128;4.566;2023-05-10T03:41:55;13.30;99.90
10388;DHT22;5240;51.128;4.566;2023-05-10T03:44:22;13.30;99.90
10388;DHT22;5240;51.128;4.566;2023-05-10T03:46:51;13.30;99.90
10388;DHT22;5240;51.128;4.566;2023-05-10T03:49:18;13.20;99.90
10388;DHT22;5240;51.128;4.566;2023-05-10T03:51:45;13.30;99.90
10388;DHT22;5240;51.128;4.566;2023-05-10T03:54:12;13.30;99.90
10388;DHT22;5240;51.128;4.566;2023-05-10T03:56:39;13.20;99.90
10388;DHT22;5240;51.128;4.566;2023-05-10T03:59:06;13.20;99.90
10388;DHT22;5240;51.128;4.566;2023-05-10T04:01:34;13.20;99.90
10388;DHT22;5240;51.128;4.566;2023-05-10T04:04:03;13.20;99.90
10388;DHT22;5240;51.128;4.566;2023-05-10T04:06:30;13.10;99.90
10388;DHT22;5240;51.128;4.566;2023-05-10T04:08:57;13.10;99.90
10388;DHT22;5240;51.128;4.566;2023-05-10T04:11:25;13.10;99.90
10388;DHT22;5240;51.128;4.566;2023-05-10T04:13:52;13.10;99.90
10388;DHT22;5240;51.128;4.566;2023-05-10T04:16:19;13.00;99.90
10388;DHT22;5240;51.128;4.566;2023-05-10T04:18:46;13.00;99.90
10388;DHT22;5240;51.128;4.566;2023-05-10T04:21:15;13.00;99.90
10388;DHT22;5240;51.128;4.566;2023-05-10T04:23:42;13.00;99.90
10388;DHT22;5240;51.128;4.566;2023-05-10T04:26:09;13.10;99.90
10388;DHT22;5240;51.128;4.566;2023-05-10T04:28:36;13.10;99.90
10388;DHT22;5240;51.128;4.566;2023-05-10T04:31:04;13.10;99.90
10388;DHT22;5240;51.128;4.566;2023-05-10T04:33:31;13.20;99.90
10388;DHT22;5240;51.128;4.566;2023-05-10T04:35:59;13.20;99.90
10388;DHT22;5240;51.128;4.566;2023-05-10T04:38:28;13.20;99.90
10388;DHT22;5240;51.128;4.566;2023-05-10T04:41:03;13.20;99.90
10388;DHT22;5240;51.128;4.566;2023-05-10T04:43:31;13.10;99.90
10388;DHT22;5240;51.128;4.566;2023-05-10T04:45:57;13.10;99.90
10388;DHT22;5240;51.128;4.566;2023-05-10T04:48:24;13.10;99.90
10388;DHT22;5240;51.128;4.566;2023-05-10T04:50:51;13.10;99.90
10388;DHT22;5240;51.128;4.566;2023-05-10T04:53:18;13.00;99.90
10388;DHT22;5240;51.128;4.566;2023-05-10T04:55:47;13.00;99.90
10388;DHT22;5240;51.128;4.566;2023-05-10T04:58:14;13.10;99.90
10388;DHT22;5240;51.128;4.566;2023-05-10T05:00:41;13.00;99.90
10388;DHT22;5240;51.128;4.566;2023-05-10T05:03:08;13.00;99.90
10388;DHT22;5240;51.128;4.566;2023-05-10T05:05:35;13.00;99.90
10388;DHT22;5240;51.128;4.566;2023-05-10T05:08:02;13.00;99.90
10388;DHT22;5240;51.128;4.566;2023-05-10T05:10:29;13.00;99.90
10388;DHT22;5240;51.128;4.566;2023-05-10T05:12:58;13.10;99.90
10388;DHT22;5240;51.128;4.566;2023-05-10T05:15:25;13.10;99.90
10388;DHT22;5240;51.128;4.566;2023-05-10T05:17:52;13.10;99.90
10388;DHT22;5240;51.128;4.566;2023-05-10T05:20:19;13.20;99.90
10388;DHT22;5240;51.128;4.566;2023-05-10T05:22:46;13.20;99.90
10388;DHT22;5240;51.128;4.566;2023-05-10T05:25:13;13.30;99.90
10388;DHT22;5240;51.128;4.566;2023-05-10T05:27:40;13.30;99.90
10388;DHT22;5240;51.128;4.566;2023-05-10T05:30:10;13.40;99.90
10388;DHT22;5240;51.128;4.566;2023-05-10T05:32:37;13.40;99.90
10388;DHT22;5240;51.128;4.566;2023-05-10T05:35:04;13.40;99.90
10388;DHT22;5240;51.128;4.566;2023-05-10T05:37:31;13.60;99.90
10388;DHT22;5240;51.128;4.566;2023-05-10T05:39:58;13.60;99.90
10388;DHT22;5240;51.128;4.566;2023-05-10T05:42:27;13.70;99.90
10388;DHT22;5240;51.128;4.566;2023-05-10T05:44:54;13.70;99.90
10388;DHT22;5240;51.128;4.566;2023-05-10T05:47:22;13.70;99.90
10388;DHT22;5240;51.128;4.566;2023-05-10T05:49:49;13.80;99.90
10388;DHT22;5240;51.128;4.566;2023-05-10T05:52:16;13.70;99.90
10388;DHT22;5240;51.128;4.566;2023-05-10T05:54:43;13.80;99.90
10388;DHT22;5240;51.128;4.566;2023-05-10T05:57:10;13.70;99.90
10388;DHT22;5240;51.128;4.566;2023-05-10T05:59:37;13.70;99.90
10388;DHT22;5240;51.128;4.566;2023-05-10T06:02:07;13.70;99.90
10388;DHT22;5240;51.128;4.566;2023-05-10T06:04:36;13.70;99.90
10388;DHT22;5240;51.128;4.566;2023-05-10T06:07:03;13.70;99.90
10388;DHT22;5240;51.128;4.566;2023-05-10T06:09:30;13.80;99.90
10388;DHT22;5240;51.128;4.566;2023-05-10T06:11:57;13.90;99.90
10388;DHT22;5240;51.128;4.566;2023-05-10T06:14:25;13.90;99.90
10388;DHT22;5240;51.128;4.566;2023-05-10T06:16:53;14.00;99.90
10388;DHT22;5240;51.128;4.566;2023-05-10T06:19:20;14.00;99.90
10388;DHT22;5240;51.128;4.566;2023-05-10T06:21:48;14.10;99.90
10388;DHT22;5240;51.128;4.566;2023-05-10T06:24:15;14.10;99.90
10388;DHT22;5240;51.128;4.566;2023-05-10T06:26:44;14.10;99.90
10388;DHT22;5240;51.128;4.566;2023-05-10T06:29:17;14.10;99.90
10388;DHT22;5240;51.128;4.566;2023-05-10T06:31:45;14.10;99.90
10388;DHT22;5240;51.128;4.566;2023-05-10T06:34:14;14.20;99.90
10388;DHT22;5240;51.128;4.566;2023-05-10T06:36:41;14.20;99.90
10388;DHT22;5240;51.128;4.566;2023-05-10T06:39:10;14.20;99.90
10388;DHT22;5240;51.128;4.566;2023-05-10T06:41:42;14.20;99.90
10388;DHT22;5240;51.128;4.566;2023-05-10T06:44:11;14.10;99.90
10388;DHT22;5240;51.128;4.566;2023-05-10T06:46:38;14.20;99.90
10388;DHT22;5240;51.128;4.566;2023-05-10T06:49:08;14.20;99.90
10388;DHT22;5240;51.128;4.566;2023-05-10T06:51:36;14.30;99.90
10388;DHT22;5240;51.128;4.566;2023-05-10T06:54:04;14.30;99.90
10388;DHT22;5240;51.128;4.566;2023-05-10T06:56:34;14.30;99.90
10388;DHT22;5240;51.128;4.566;2023-05-10T06:59:02;14.30;99.90
10388;DHT22;5240;51.128;4.566;2023-05-10T07:01:29;14.30;99.90
10388;DHT22;5240;51.128;4.566;2023-05-10T07:03:56;14.30;99.90
10388;DHT22;5240;51.128;4.566;2023-05-10T07:06:23;14.30;99.90
10388;DHT22;5240;51.128;4.566;2023-05-10T07:08:50;14.30;99.90
10388;DHT22;5240;51.128;4.566;2023-05-10T07:11:18;14.20;99.90
10388;DHT22;5240;51.128;4.566;2023-05-10T07:13:46;14.30;99.90
10388;DHT22;5240;51.128;4.566;2023-05-10T07:16:16;14.30;99.90
10388;DHT22;5240;51.128;4.566;2023-05-10T07:31:57;14.10;99.90
10388;DHT22;5240;51.128;4.566;2023-05-10T07:34:24;14.30;99.90
10388;DHT22;5240;51.128;4.566;2023-05-10T07:36:52;14.40;99.90
10388;DHT22;5240;51.128;4.566;2023-05-10T07:39:19;14.40;99.90
10388;DHT22;5240;51.128;4.566;2023-05-10T07:41:47;14.40;99.90
10388;DHT22;5240;51.128;4.566;2023-05-10T07:44:14;14.50;99.90
10388;DHT22;5240;51.128;4.566;2023-05-10T07:46:44;14.50;99.90
10388;DHT22;5240;51.128;4.566;2023-05-10T07:49:12;14.60;99.90
10388;DHT22;5240;51.128;4.566;2023-05-10T07:56:48;14.90;99.90
10388;DHT22;5240;51.128;4.566;2023-05-10T07:59:17;15.00;99.90
10388;DHT22;5240;51.128;4.566;2023-05-10T08:01:44;15.00;99.90
10388;DHT22;5240;51.128;4.566;2023-05-10T08:04:13;15.10;99.90
10388;DHT22;5240;51.128;4.566;2023-05-10T08:06:43;15.10;99.90
10388;DHT22;5240;51.128;4.566;2023-05-10T08:09:24;15.30;99.90
10388;DHT22;5240;51.128;4.566;2023-05-10T08:11:51;15.30;99.90
10388;DHT22;5240;51.128;4.566;2023-05-10T08:17:09;15.40;99.90
10388;DHT22;5240;51.128;4.566;2023-05-10T08:22:49;15.20;99.90
10388;DHT22;5240;51.128;4.566;2023-05-10T08:25:33;15.20;99.90
10388;DHT22;5240;51.128;4.566;2023-05-10T08:28:16;15.20;99.90
10388;DHT22;5240;51.128;4.566;2023-05-10T08:30:43;15.20;99.90
10388;DHT22;5240;51.128;4.566;2023-05-10T08:33:10;15.30;99.90
10388;DHT22;5240;51.128;4.566;2023-05-10T08:35:38;15.40;99.90
10388;DHT22;5240;51.128;4.566;2023-05-10T08:38:07;15.50;99.90
10388;DHT22;5240;51.128;4.566;2023-05-10T08:40:34;15.50;99.90
10388;DHT22;5240;51.128;4.566;2023-05-10T08:43:05;15.60;99.90
10388;DHT22;5240;51.128;4.566;2023-05-10T08:45:35;16.80;99.90
10388;DHT22;5240;51.128;4.566;2023-05-10T08:48:06;15.60;99.90
10388;DHT22;5240;51.128;4.566;2023-05-10T08:50:36;15.70;99.90
10388;DHT22;5240;51.128;4.566;2023-05-10T08:53:06;15.80;99.90
10388;DHT22;5240;51.128;4.566;2023-05-10T08:55:36;16.50;99.90
10388;DHT22;5240;51.128;4.566;2023-05-10T08:58:04;15.80;99.90
10388;DHT22;5240;51.128;4.566;2023-05-10T09:00:32;16.00;99.90
10388;DHT22;5240;51.128;4.566;2023-05-10T09:03:00;16.20;99.90
10388;DHT22;5240;51.128;4.566;2023-05-10T09:05:28;16.30;99.90
10388;DHT22;5240;51.128;4.566;2023-05-10T09:07:55;16.30;99.90
10388;DHT22;5240;51.128;4.566;2023-05-10T09:10:26;16.10;99.90
10388;DHT22;5240;51.128;4.566;2023-05-10T09:12:56;15.90;99.90
10388;DHT22;5240;51.128;4.566;2023-05-10T09:15:25;15.80;99.90
10388;DHT22;5240;51.128;4.566;2023-05-10T09:18:07;15.80;99.90
10388;DHT22;5240;51.128;4.566;2023-05-10T09:20:35;16.00;99.90
10388;DHT22;5240;51.128;4.566;2023-05-10T09:23:02;16.20;99.90
10388;DHT22;5240;51.128;4.566;2023-05-10T09:25:32;16.10;99.90
10388;DHT22;5240;51.128;4.566;2023-05-10T09:28:00;16.10;99.90
10388;DHT22;5240;51.128;4.566;2023-05-10T09:30:29;16.00;99.90
10388;DHT22;5240;51.128;4.566;2023-05-10T09:32:58;15.90;99.90
10388;DHT22;5240;51.128;4.566;2023-05-10T09:35:27;15.70;99.90
10388;DHT22;5240;51.128;4.566;2023-05-10T09:37:56;15.60;99.90
10388;DHT22;5240;51.128;4.566;2023-05-10T09:40:26;15.60;99.90
10388;DHT22;5240;51.128;4.566;2023-05-10T09:42:57;15.40;99.90
10388;DHT22;5240;51.128;4.566;2023-05-10T09:45:25;15.30;99.90
10388;DHT22;5240;51.128;4.566;2023-05-10T09:47:52;15.30;99.90
10388;DHT22;5240;51.128;4.566;2023-05-10T09:50:20;15.00;99.90
10388;DHT22;5240;51.128;4.566;2023-05-10T09:52:49;14.90;99.90
10388;DHT22;5240;51.128;4.566;2023-05-10T09:55:19;14.90;99.90
10388;DHT22;5240;51.128;4.566;2023-05-10T09:57:59;14.70;99.90
10388;DHT22;5240;51.128;4.566;2023-05-10T10:00:40;14.70;99.90
10388;DHT22;5240;51.128;4.566;2023-05-10T10:21:13;15.00;99.90
10388;DHT22;5240;51.128;4.566;2023-05-10T10:23:41;15.00;99.90
10388;DHT22;5240;51.128;4.566;2023-05-10T10:26:10;14.80;99.90
10388;DHT22;5240;51.128;4.566;2023-05-10T10:28:48;14.80;99.90
10388;DHT22;5240;51.128;4.566;2023-05-10T10:31:24;14.60;99.90
10388;DHT22;5240;51.128;4.566;2023-05-10T10:34:06;14.50;99.90
10388;DHT22;5240;51.128;4.566;2023-05-10T10:36:40;14.60;99.90
10388;DHT22;5240;51.128;4.566;2023-05-10T10:39:10;14.80;99.90
10388;DHT22;5240;51.128;4.566;2023-05-10T10:41:39;14.90;99.90
10388;DHT22;5240;51.128;4.566;2023-05-10T10:44:39;15.20;99.90
10388;DHT22;5240;51.128;4.566;2023-05-10T10:47:22;15.40;99.90
10388;DHT22;5240;51.128;4.566;2023-05-10T10:49:51;15.60;99.90
10388;DHT22;5240;51.128;4.566;2023-05-10T10:52:25;15.90;99.90
10388;DHT22;5240;51.128;4.566;2023-05-10T10:54:59;15.90;99.90
10388;DHT22;5240;51.128;4.566;2023-05-10T10:57:27;15.80;99.90
10388;DHT22;5240;51.128;4.566;2023-05-10T11:00:18;15.70;99.90
10388;DHT22;5240;51.128;4.566;2023-05-10T11:02:45;16.00;99.90
10388;DHT22;5240;51.128;4.566;2023-05-10T11:05:34;16.00;99.90
10388;DHT22;5240;51.128;4.566;2023-05-10T11:08:12;15.40;99.90
10388;DHT22;5240;51.128;4.566;2023-05-10T11:10:40;15.60;99.90
10388;DHT22;5240;51.128;4.566;2023-05-10T11:13:27;15.70;99.90
10388;DHT22;5240;51.128;4.566;2023-05-10T11:15:54;15.80;99.90
10388;DHT22;5240;51.128;4.566;2023-05-10T11:18:24;15.80;99.90
10388;DHT22;5240;51.128;4.566;2023-05-10T11:20:52;15.80;99.90
10388;DHT22;5240;51.128;4.566;2023-05-10T11:23:23;16.00;99.90
10388;DHT22;5240;51.128;4.566;2023-05-10T11:25:50;15.90;99.90
10388;DHT22;5240;51.128;4.566;2023-05-10T11:28:17;15.90;99.90
10388;DHT22;5240;51.128;4.566;2023-05-10T11:30:45;16.10;99.90
10388;DHT22;5240;51.128;4.566;2023-05-10T11:33:16;16.10;99.90
10388;DHT22;5240;51.128;4.566;2023-05-10T11:35:45;16.10;99.90
10388;DHT22;5240;51.128;4.566;2023-05-10T11:38:13;15.90;99.90
10388;DHT22;5240;51.128;4.566;2023-05-10T11:40:42;15.90;99.90
10388;DHT22;5240;51.128;4.566;2023-05-10T11:43:10;15.70;99.90
10388;DHT22;5240;51.128;4.566;2023-05-10T11:45:38;15.70;99.90
10388;DHT22;5240;51.128;4.566;2023-05-10T11:48:06;15.70;99.90
10388;DHT22;5240;51.128;4.566;2023-05-10T11:50:34;15.80;99.90
10388;DHT22;5240;51.128;4.566;2023-05-10T11:53:01;15.90;99.90
10388;DHT22;5240;51.128;4.566;2023-05-10T11:55:28;16.00;99.90
10388;DHT22;5240;51.128;4.566;2023-05-10T11:58:01;16.10;99.90
10388;DHT22;5240;51.128;4.566;2023-05-10T12:00:29;16.00;99.90
10388;DHT22;5240;51.128;4.566;2023-05-10T12:02:56;15.80;99.90
10388;DHT22;5240;51.128;4.566;2023-05-10T12:05:24;15.70;99.90
10388;DHT22;5240;51.128;4.566;2023-05-10T12:07:51;15.70;99.90
10388;DHT22;5240;51.128;4.566;2023-05-10T12:10:25;15.60;99.90
10388;DHT22;5240;51.128;4.566;2023-05-10T12:12:52;15.60;99.90
10388;DHT22;5240;51.128;4.566;2023-05-10T12:15:22;15.50;99.90
10388;DHT22;5240;51.128;4.566;2023-05-10T12:17:50;15.70;99.90
10388;DHT22;5240;51.128;4.566;2023-05-10T12:20:18;15.60;99.90
10388;DHT22;5240;51.128;4.566;2023-05-10T12:22:47;15.70;99.90
10388;DHT22;5240;51.128;4.566;2023-05-10T12:25:15;15.60;99.90
10388;DHT22;5240;51.128;4.566;2023-05-10T12:27:48;15.70;99.90
10388;DHT22;5240;51.128;4.566;2023-05-10T12:30:21;15.50;99.90
10388;DHT22;5240;51.128;4.566;2023-05-10T12:32:49;15.50;99.90
10388;DHT22;5240;51.128;4.566;2023-05-10T12:35:16;15.50;99.90
10388;DHT22;5240;51.128;4.566;2023-05-10T12:37:46;15.30;99.90
10388;DHT22;5240;51.128;4.566;2023-05-10T12:40:13;15.50;99.90
10388;DHT22;5240;51.128;4.566;2023-05-10T12:42:40;15.50;99.90
10388;DHT22;5240;51.128;4.566;2023-05-10T12:45:08;15.40;99.90
10388;DHT22;5240;51.128;4.566;2023-05-10T12:47:37;15.50;99.90
10388;DHT22;5240;51.128;4.566;2023-05-10T12:50:05;15.70;99.90
10388;DHT22;5240;51.128;4.566;2023-05-10T12:52:32;15.80;99.90
10388;DHT22;5240;51.128;4.566;2023-05-10T12:54:59;16.10;99.90
10388;DHT22;5240;51.128;4.566;2023-05-10T12:57:27;16.80;99.90
10388;DHT22;5240;51.128;4.566;2023-05-10T12:59:54;18.00;99.90
10388;DHT22;5240;51.128;4.566;2023-05-10T13:02:21;19.20;99.90
10388;DHT22;5240;51.128;4.566;2023-05-10T13:04:50;19.70;99.90
10388;DHT22;5240;51.128;4.566;2023-05-10T13:07:17;19.70;99.90
10388;DHT22;5240;51.128;4.566;2023-05-10T13:09:44;19.50;99.90
10388;DHT22;5240;51.128;4.566;2023-05-10T13:12:11;19.70;99.90
10388;DHT22;5240;51.128;4.566;2023-05-10T13:14:38;20.20;99.90
10388;DHT22;5240;51.128;4.566;2023-05-10T13:17:07;20.90;99.90
10388;DHT22;5240;51.128;4.566;2023-05-10T13:19:34;21.30;99.90
10388;DHT22;5240;51.128;4.566;2023-05-10T13:22:03;22.00;99.90
10388;DHT22;5240;51.128;4.566;2023-05-10T13:24:30;22.40;99.90
10388;DHT22;5240;51.128;4.566;2023-05-10T13:26:57;23.00;99.90
10388;DHT22;5240;51.128;4.566;2023-05-10T13:29:24;23.70;99.90
10388;DHT22;5240;51.128;4.566;2023-05-10T13:31:51;24.40;99.90
10388;DHT22;5240;51.128;4.566;2023-05-10T13:34:18;24.70;99.90
10388;DHT22;5240;51.128;4.566;2023-05-10T13:36:47;25.00;99.90
10388;DHT22;5240;51.128;4.566;2023-05-10T13:39:16;24.40;99.90
10388;DHT22;5240;51.128;4.566;2023-05-10T13:41:43;24.00;99.90
10388;DHT22;5240;51.128;4.566;2023-05-10T13:44:12;23.40;99.90
10388;DHT22;5240;51.128;4.566;2023-05-10T13:46:39;22.90;99.90
10388;DHT22;5240;51.128;4.566;2023-05-10T13:49:06;22.00;99.90
10388;DHT22;5240;51.128;4.566;2023-05-10T13:51:33;21.20;99.90
10388;DHT22;5240;51.128;4.566;2023-05-10T13:54:01;20.60;99.90
10388;DHT22;5240;51.128;4.566;2023-05-10T13:56:29;20.10;99.90
10388;DHT22;5240;51.128;4.566;2023-05-10T13:58:57;19.70;99.90
10388;DHT22;5240;51.128;4.566;2023-05-10T14:01:24;19.60;99.90
10388;DHT22;5240;51.128;4.566;2023-05-10T14:03:51;19.50;99.90
10388;DHT22;5240;51.128;4.566;2023-05-10T14:06:18;19.30;99.90
10388;DHT22;5240;51.128;4.566;2023-05-10T14:08:45;19.40;99.90
10388;DHT22;5240;51.128;4.566;2023-05-10T14:11:12;19.30;99.90
10388;DHT22;5240;51.128;4.566;2023-05-10T14:13:40;19.00;99.90
10388;DHT22;5240;51.128;4.566;2023-05-10T14:16:08;18.70;99.90
10388;DHT22;5240;51.128;4.566;2023-05-10T14:18:35;18.60;99.90
10388;DHT22;5240;51.128;4.566;2023-05-10T14:21:02;18.50;99.90
10388;DHT22;5240;51.128;4.566;2023-05-10T14:23:30;18.50;99.90
10388;DHT22;5240;51.128;4.566;2023-05-10T14:25:57;18.70;99.90
10388;DHT22;5240;51.128;4.566;2023-05-10T14:28:24;18.70;99.90
10388;DHT22;5240;51.128;4.566;2023-05-10T14:30:53;18.80;99.90
10388;DHT22;5240;51.128;4.566;2023-05-10T14:33:20;18.90;99.90
10388;DHT22;5240;51.128;4.566;2023-05-10T14:35:47;19.00;99.90
10388;DHT22;5240;51.128;4.566;2023-05-10T14:38:15;19.00;99.90
10388;DHT22;5240;51.128;4.566;2023-05-10T14:40:42;19.00;99.90
10388;DHT22;5240;51.128;4.566;2023-05-10T14:43:09;18.70;99.90
10388;DHT22;5240;51.128;4.566;2023-05-10T14:45:36;18.60;99.90
10388;DHT22;5240;51.128;4.566;2023-05-10T14:48:04;18.40;99.90
10388;DHT22;5240;51.128;4.566;2023-05-10T14:50:32;18.40;99.90
10388;DHT22;5240;51.128;4.566;2023-05-10T14:52:59;18.30;99.90
10388;DHT22;5240;51.128;4.566;2023-05-10T14:55:26;18.20;99.90
10388;DHT22;5240;51.128;4.566;2023-05-10T14:57:53;18.10;99.90
10388;DHT22;5240;51.128;4.566;2023-05-10T15:00:20;17.80;99.90
10388;DHT22;5240;51.128;4.566;2023-05-10T15:02:48;17.70;99.90
10388;DHT22;5240;51.128;4.566;2023-05-10T15:05:16;17.40;99.90
10388;DHT22;5240;51.128;4.566;2023-05-10T15:07:43;17.30;99.90
10388;DHT22;5240;51.128;4.566;2023-05-10T15:10:10;17.10;99.90
10388;DHT22;5240;51.128;4.566;2023-05-10T15:12:38;17.00;99.90
10388;DHT22;5240;51.128;4.566;2023-05-10T15:15:06;17.20;99.90
10388;DHT22;5240;51.128;4.566;2023-05-10T15:17:33;17.00;99.90
10388;DHT22;5240;51.128;4.566;2023-05-10T15:20:00;17.10;99.90
10388;DHT22;5240;51.128;4.566;2023-05-10T15:22:30;17.10;99.90
10388;DHT22;5240;51.128;4.566;2023-05-10T15:24:58;17.20;99.90
10388;DHT22;5240;51.128;4.566;2023-05-10T15:27:25;17.10;99.90
10388;DHT22;5240;51.128;4.566;2023-05-10T15:29:52;16.80;99.90
10388;DHT22;5240;51.128;4.566;2023-05-10T15:32:19;16.80;99.90
10388;DHT22;5240;51.128;4.566;2023-05-10T15:34:46;16.60;99.90
10388;DHT22;5240;51.128;4.566;2023-05-10T15:37:13;16.30;99.90
10388;DHT22;5240;51.128;4.566;2023-05-10T15:39:42;16.30;99.90
10388;DHT22;5240;51.128;4.566;2023-05-10T15:42:08;16.20;99.90
10388;DHT22;5240;51.128;4.566;2023-05-10T15:44:35;16.20;99.90
10388;DHT22;5240;51.128;4.566;2023-05-10T15:47:04;15.80;99.90
10388;DHT22;5240;51.128;4.566;2023-05-10T15:51:58;14.40;99.90
10388;DHT22;5240;51.128;4.566;2023-05-10T15:56:54;15.40;99.90
10388;DHT22;5240;51.128;4.566;2023-05-10T15:59:21;15.50;99.90
10388;DHT22;5240;51.128;4.566;2023-05-10T16:01:48;15.40;99.90
10388;DHT22;5240;51.128;4.566;2023-05-10T16:04:16;15.40;99.90
10388;DHT22;5240;51.128;4.566;2023-05-10T16:06:43;15.30;99.90
10388;DHT22;5240;51.128;4.566;2023-05-10T16:09:10;15.30;99.90
10388;DHT22;5240;51.128;4.566;2023-05-10T16:11:38;15.20;99.90
10388;DHT22;5240;51.128;4.566;2023-05-10T16:14:06;15.00;99.90
10388;DHT22;5240;51.128;4.566;2023-05-10T16:16:34;15.10;99.90
10388;DHT22;5240;51.128;4.566;2023-05-10T16:19:01;15.30;99.90
10388;DHT22;5240;51.128;4.566;2023-05-10T16:21:29;15.10;99.90
10388;DHT22;5240;51.128;4.566;2023-05-10T16:23:58;15.20;99.90
10388;DHT22;5240;51.128;4.566;2023-05-10T16:26:26;15.10;99.90
10388;DHT22;5240;51.128;4.566;2023-05-10T16:28:53;15.20;99.90
10388;DHT22;5240;51.128;4.566;2023-05-10T16:31:21;15.10;99.90
10388;DHT22;5240;51.128;4.566;2023-05-10T16:33:48;15.20;99.90
10388;DHT22;5240;51.128;4.566;2023-05-10T16:36:15;15.30;99.90
10388;DHT22;5240;51.128;4.566;2023-05-10T16:38:42;15.40;99.90
10388;DHT22;5240;51.128;4.566;2023-05-10T16:41:09;15.50;99.90
10388;DHT22;5240;51.128;4.566;2023-05-10T16:43:36;15.50;99.90